createdAt,value
2019-05-01T00:00:21.733Z,11.50
2019-05-01T00:02:52.112Z,13.08
2019-05-01T00:05:24.898Z,13.62
2019-05-01T00:07:53.621Z,12.20
2019-05-01T00:10:23.000Z,12.95
2019-05-01T00:12:51.744Z,12.45
2019-05-01T00:15:25.682Z,14.50
2019-05-01T00:20:22.296Z,12.68
2019-05-01T00:22:51.072Z,11.83
2019-05-01T00:25:19.798Z,12.37
2019-05-01T00:27:48.508Z,12.53
2019-05-01T00:30:29.326Z,12.28
2019-05-01T00:32:49.339Z,12.43
2019-05-01T00:35:18.087Z,11.83
2019-05-01T00:37:46.779Z,12.33
2019-05-01T00:40:15.512Z,11.85
2019-05-01T00:42:44.237Z,12.63
2019-05-01T00:45:13.283Z,12.13
2019-05-01T00:47:42.025Z,12.20
2019-05-01T00:50:10.736Z,12.55
2019-05-01T00:52:39.595Z,13.53
2019-05-01T00:55:26.663Z,13.70
2019-05-01T00:58:00.015Z,12.35
2019-05-01T01:00:42.563Z,13.22
2019-05-01T01:03:00.783Z,12.90
2019-05-01T01:05:29.510Z,13.55
2019-05-01T01:07:58.235Z,13.55
2019-05-01T01:10:26.959Z,13.20
2019-05-01T01:12:56.063Z,12.80
2019-05-01T01:15:24.987Z,12.53
2019-05-01T01:17:53.703Z,12.73
2019-05-01T01:20:22.443Z,13.22
2019-05-01T01:22:51.171Z,12.80
2019-05-01T01:25:19.985Z,12.68
2019-05-01T01:27:48.807Z,12.30
2019-05-01T01:30:17.526Z,11.75
2019-05-01T01:32:46.573Z,13.55
2019-05-01T01:35:15.310Z,12.53
2019-05-01T01:37:44.024Z,12.82
2019-05-01T01:40:12.971Z,12.82
2019-05-01T01:42:42.458Z,13.15
2019-05-01T01:45:18.725Z,12.73
2019-05-01T01:48:05.506Z,12.10
2019-05-01T01:50:34.607Z,13.20
2019-05-01T01:53:03.416Z,12.03
2019-05-01T01:55:32.135Z,12.68
2019-05-01T01:58:01.059Z,12.43
2019-05-01T02:00:47.827Z,12.53
2019-05-01T02:03:16.998Z,12.37
2019-05-01T02:05:45.725Z,13.43
2019-05-01T02:08:14.539Z,12.73
2019-05-01T02:10:43.544Z,12.43
2019-05-01T02:13:12.310Z,11.68
2019-05-01T02:15:41.045Z,12.68
2019-05-01T02:18:09.768Z,12.23
2019-05-01T02:20:38.496Z,13.03
2019-05-01T02:23:07.219Z,12.43
2019-05-01T02:25:37.587Z,12.20
2019-05-01T02:28:26.222Z,12.60
2019-05-01T02:31:27.360Z,12.45
2019-05-01T02:33:46.763Z,12.25
2019-05-01T02:36:16.389Z,11.40
2019-05-01T02:38:47.191Z,12.50
2019-05-01T02:41:18.879Z,12.00
2019-05-01T02:43:50.147Z,12.65
2019-05-01T02:46:21.330Z,12.85
2019-05-01T02:49:07.912Z,13.58
2019-05-01T02:51:38.642Z,12.53
2019-05-01T02:54:07.932Z,12.65
2019-05-01T02:56:54.075Z,13.18
2019-05-01T02:59:24.495Z,12.93
2019-05-01T03:01:53.613Z,13.03
2019-05-01T03:04:22.732Z,13.20
2019-05-01T03:06:52.063Z,12.93
2019-05-01T03:09:21.383Z,13.13
2019-05-01T03:11:53.073Z,13.22
2019-05-01T03:14:23.994Z,12.93
2019-05-01T03:16:56.292Z,13.50
2019-05-01T03:19:30.342Z,13.00
2019-05-01T03:22:10.420Z,15.00
2019-05-01T03:24:39.244Z,17.30
2019-05-01T03:27:08.184Z,15.85
2019-05-01T03:29:37.032Z,16.90
2019-05-01T03:32:16.704Z,17.32
2019-05-01T03:34:36.148Z,16.95
2019-05-01T03:37:04.963Z,15.15
2019-05-01T03:39:33.745Z,15.90
2019-05-01T03:42:02.568Z,14.43
2019-05-01T03:44:31.397Z,14.58
2019-05-01T03:47:00.132Z,14.13
2019-05-01T03:49:29.043Z,14.90
2019-05-01T03:51:58.452Z,15.08
2019-05-01T03:54:27.488Z,15.08
2019-05-01T03:56:56.299Z,14.93
2019-05-01T03:59:25.049Z,15.40
2019-05-01T04:01:58.222Z,15.05
2019-05-01T04:04:28.908Z,14.75
2019-05-01T04:06:57.705Z,15.88
2019-05-01T04:09:26.600Z,15.00
2019-05-01T04:11:57.252Z,16.27
2019-05-01T04:14:26.316Z,15.72
2019-05-01T04:16:57.073Z,17.45
2019-05-01T04:19:31.779Z,19.12
2019-05-01T04:22:02.501Z,16.60
2019-05-01T04:24:34.787Z,17.75
2019-05-01T04:27:05.278Z,17.92
2019-05-01T04:29:35.674Z,18.65
2019-05-01T04:32:06.154Z,16.32
2019-05-01T04:34:46.987Z,15.72
2019-05-01T04:37:17.564Z,16.02
2019-05-01T04:39:46.437Z,16.37
2019-05-01T04:42:15.166Z,15.53
2019-05-01T04:44:44.483Z,14.20
2019-05-01T04:47:14.114Z,10.20
2019-05-01T04:49:43.336Z,14.03
2019-05-01T04:52:15.146Z,12.20
2019-05-01T04:54:43.943Z,10.55
2019-05-01T04:57:12.707Z,10.45
2019-05-01T04:59:41.595Z,10.43
2019-05-01T05:02:13.517Z,10.88
2019-05-01T05:04:42.876Z,10.40
2019-05-01T05:07:12.299Z,10.88
2019-05-01T05:09:42.970Z,11.28
2019-05-01T05:12:19.903Z,10.65
2019-05-01T05:14:50.591Z,10.75
2019-05-01T05:17:21.177Z,9.75
2019-05-01T05:19:51.225Z,10.65
2019-05-01T05:22:20.409Z,9.70
2019-05-01T05:24:49.134Z,9.93
2019-05-01T05:27:19.266Z,11.12
2019-05-01T05:29:49.991Z,9.15
2019-05-01T05:32:20.938Z,9.40
2019-05-01T05:34:52.611Z,9.05
2019-05-01T05:37:26.090Z,9.18
2019-05-01T05:39:58.401Z,9.30
2019-05-01T05:42:27.209Z,9.45
2019-05-01T05:44:56.509Z,9.73
2019-05-01T05:47:26.165Z,10.58
2019-05-01T05:49:55.061Z,12.20
2019-05-01T05:52:42.740Z,11.15
2019-05-01T05:55:29.956Z,10.98
2019-05-01T05:58:02.871Z,11.70
2019-05-01T06:00:42.124Z,10.37
2019-05-01T06:03:13.943Z,9.63
2019-05-01T06:05:55.754Z,9.78
2019-05-01T06:08:28.787Z,8.98
2019-05-01T06:11:01.950Z,9.73
2019-05-01T06:13:52.532Z,8.18
2019-05-01T06:16:33.354Z,8.53
2019-05-01T06:19:16.372Z,9.78
2019-05-01T06:21:50.715Z,9.90
2019-05-01T06:24:24.119Z,23.52
2019-05-01T06:26:52.861Z,13.05
2019-05-01T06:29:21.720Z,11.28
2019-05-01T06:31:54.033Z,10.32
2019-05-01T06:34:23.846Z,9.10
2019-05-01T06:36:51.380Z,8.95
2019-05-01T06:39:20.737Z,7.53
2019-05-01T06:41:49.878Z,9.90
2019-05-01T06:44:23.491Z,9.50
2019-05-01T06:46:58.129Z,7.83
2019-05-01T06:49:38.826Z,8.40
2019-05-01T06:52:09.323Z,7.90
2019-05-01T06:54:38.259Z,8.10
2019-05-01T06:57:07.771Z,7.17
2019-05-01T06:59:37.801Z,7.05
2019-05-01T07:02:07.623Z,8.60
2019-05-01T07:04:37.954Z,7.10
2019-05-01T07:07:18.571Z,6.97
2019-05-01T07:09:38.709Z,6.85
2019-05-01T07:12:09.241Z,8.73
2019-05-01T07:14:39.059Z,7.05
2019-05-01T07:17:09.005Z,6.70
2019-05-01T07:19:51.880Z,7.00
2019-05-01T07:22:21.664Z,7.45
2019-05-01T07:24:51.790Z,5.35
2019-05-01T07:27:23.739Z,6.17
2019-05-01T07:29:52.728Z,5.90
2019-05-01T07:32:22.061Z,5.85
2019-05-01T07:34:50.908Z,5.17
2019-05-01T07:37:27.777Z,5.45
2019-05-01T07:40:12.440Z,6.12
2019-05-01T07:42:43.698Z,7.22
2019-05-01T07:45:16.987Z,6.08
2019-05-01T07:47:47.400Z,8.58
2019-05-01T07:50:45.724Z,4.85
2019-05-01T07:53:28.308Z,4.90
2019-05-01T07:56:01.365Z,5.67
2019-05-01T07:58:40.569Z,5.10
2019-05-01T08:01:13.043Z,7.50
2019-05-01T08:03:42.660Z,5.85
2019-05-01T08:06:16.097Z,4.58
2019-05-01T08:08:42.296Z,4.72
2019-05-01T08:11:11.575Z,4.60
2019-05-01T08:13:40.758Z,5.30
2019-05-01T08:16:09.507Z,4.70
2019-05-01T08:18:51.961Z,5.30
2019-05-01T08:21:26.061Z,4.45
2019-05-01T08:23:52.722Z,6.30
2019-05-01T08:26:21.430Z,5.15
2019-05-01T08:28:51.899Z,5.33
2019-05-01T08:31:41.767Z,5.15
2019-05-01T08:34:25.428Z,4.83
2019-05-01T08:36:52.552Z,4.65
2019-05-01T08:39:21.300Z,5.15
2019-05-01T08:41:50.062Z,6.55
2019-05-01T08:44:19.228Z,7.03
2019-05-01T08:46:52.615Z,4.92
2019-05-01T08:49:23.008Z,4.67
2019-05-01T08:51:51.838Z,6.03
2019-05-01T08:54:20.547Z,5.72
2019-05-01T08:56:53.086Z,5.53
2019-05-01T08:59:23.941Z,5.35
2019-05-01T09:02:08.419Z,5.15
2019-05-01T09:04:25.402Z,4.10
2019-05-01T09:06:53.743Z,5.33
2019-05-01T09:09:22.476Z,6.00
2019-05-01T09:11:51.295Z,4.53
2019-05-01T09:14:20.039Z,4.92
2019-05-01T09:16:52.315Z,3.87
2019-05-01T09:19:20.890Z,4.05
2019-05-01T09:21:49.679Z,4.03
2019-05-01T09:24:22.979Z,4.20
2019-05-01T09:27:06.799Z,4.80
2019-05-01T09:29:40.413Z,3.62
2019-05-01T09:32:10.511Z,4.28
2019-05-01T09:34:40.520Z,3.67
2019-05-01T09:37:09.262Z,4.22
2019-05-01T09:39:38.944Z,3.87
2019-05-01T09:42:08.415Z,4.05
2019-05-01T09:44:37.572Z,3.45
2019-05-01T09:47:07.486Z,3.58
2019-05-01T09:49:36.420Z,3.92
2019-05-01T09:52:23.535Z,3.72
2019-05-01T09:54:51.864Z,4.05
2019-05-01T09:57:20.606Z,4.67
2019-05-01T09:59:49.342Z,3.92
2019-05-01T10:02:19.835Z,4.17
2019-05-01T10:04:50.249Z,3.83
2019-05-01T10:07:19.558Z,4.83
2019-05-01T10:09:52.222Z,3.60
2019-05-01T10:12:21.244Z,3.55
2019-05-01T10:14:50.774Z,4.20
2019-05-01T10:19:50.238Z,4.17
2019-05-01T10:22:19.080Z,3.70
2019-05-01T10:24:48.374Z,3.65
2019-05-01T10:27:19.708Z,4.50
2019-05-01T10:30:06.763Z,3.60
2019-05-01T10:32:43.711Z,4.15
2019-05-01T10:35:19.167Z,3.95
2019-05-01T10:37:48.235Z,3.60
2019-05-01T10:40:17.078Z,4.78
2019-05-01T10:42:45.878Z,4.65
2019-05-01T10:45:14.757Z,5.10
2019-05-01T10:47:43.471Z,3.80
2019-05-01T10:50:12.682Z,4.95
2019-05-01T10:52:41.556Z,4.17
2019-05-01T10:55:10.290Z,5.10
2019-05-01T10:57:40.654Z,4.28
2019-05-01T11:00:09.667Z,4.10
2019-05-01T11:02:38.419Z,4.15
2019-05-01T11:05:07.467Z,4.50
2019-05-01T11:07:36.283Z,4.42
2019-05-01T11:10:07.543Z,4.85
2019-05-01T11:12:36.257Z,4.80
2019-05-01T11:15:08.227Z,5.15
2019-05-01T11:17:37.023Z,5.03
2019-05-01T11:20:07.368Z,4.50
2019-05-01T11:22:36.123Z,4.58
2019-05-01T11:25:06.633Z,4.92
2019-05-01T11:27:35.355Z,5.03
2019-05-01T11:30:06.348Z,5.05
2019-05-01T11:32:49.019Z,5.40
2019-05-01T11:35:22.378Z,5.15
2019-05-01T11:37:52.751Z,4.97
2019-05-01T11:40:23.128Z,5.35
2019-05-01T11:42:52.040Z,5.10
2019-05-01T11:45:20.746Z,5.00
2019-05-01T11:47:49.511Z,5.20
2019-05-01T11:50:18.273Z,4.70
2019-05-01T11:52:46.983Z,4.72
2019-05-01T11:55:15.764Z,6.20
2019-05-01T11:57:44.487Z,4.80
2019-05-01T12:00:15.261Z,6.22
2019-05-01T12:02:44.002Z,5.58
2019-05-01T12:05:13.149Z,5.42
2019-05-01T12:07:41.899Z,5.60
2019-05-01T12:10:14.210Z,5.67
2019-05-01T12:12:41.813Z,5.33
2019-05-01T12:15:11.200Z,5.35
2019-05-01T12:17:41.759Z,5.03
2019-05-01T12:20:10.588Z,7.03
2019-05-01T12:22:40.418Z,6.53
2019-05-01T12:25:09.392Z,6.17
2019-05-01T12:27:38.114Z,6.03
2019-05-01T12:30:08.507Z,5.70
2019-05-01T12:32:40.800Z,5.45
2019-05-01T12:35:13.018Z,6.75
2019-05-01T12:37:42.511Z,5.92
2019-05-01T12:40:13.417Z,5.53
2019-05-01T12:42:42.215Z,5.78
2019-05-01T12:45:12.824Z,5.25
2019-05-01T12:47:44.574Z,5.25
2019-05-01T12:50:13.480Z,5.70
2019-05-01T12:52:46.821Z,7.12
2019-05-01T12:55:26.417Z,6.62
2019-05-01T12:57:55.197Z,5.65
2019-05-01T13:00:56.114Z,5.75
2019-05-01T13:03:24.893Z,6.05
2019-05-01T13:05:53.761Z,5.60
2019-05-01T13:08:22.715Z,5.90
2019-05-01T13:10:51.451Z,5.60
2019-05-01T13:13:20.197Z,5.33
2019-05-01T13:15:49.370Z,6.60
2019-05-01T13:18:18.104Z,5.80
2019-05-01T13:20:46.832Z,5.22
2019-05-01T13:23:15.570Z,5.22
2019-05-01T13:25:44.664Z,5.70
2019-05-01T13:28:17.955Z,6.83
2019-05-01T13:30:48.363Z,5.42
2019-05-01T13:33:17.155Z,6.78
2019-05-01T13:35:45.884Z,5.42
2019-05-01T13:38:14.607Z,5.70
2019-05-01T13:40:43.347Z,5.70
2019-05-01T13:43:12.152Z,5.58
2019-05-01T13:45:40.945Z,7.03
2019-05-01T13:48:09.620Z,5.65
2019-05-01T13:50:38.367Z,5.45
2019-05-01T13:53:07.307Z,6.70
2019-05-01T13:55:36.124Z,6.42
2019-05-01T13:58:04.852Z,5.70
2019-05-01T14:00:33.621Z,6.97
2019-05-01T14:03:02.320Z,5.70
2019-05-01T14:05:31.218Z,6.62
2019-05-01T14:08:00.028Z,7.50
2019-05-01T14:10:28.919Z,6.58
2019-05-01T14:12:57.661Z,7.17
2019-05-01T14:15:26.382Z,6.15
2019-05-01T14:17:55.123Z,6.67
2019-05-01T14:20:28.568Z,6.33
2019-05-01T14:23:15.438Z,6.80
2019-05-01T14:26:02.047Z,7.22
2019-05-01T14:28:31.091Z,6.60
2019-05-01T14:30:59.860Z,5.78
2019-05-01T14:33:28.571Z,5.80
2019-05-01T14:35:57.451Z,6.12
2019-05-01T14:38:26.199Z,6.20
2019-05-01T14:40:54.939Z,6.40
2019-05-01T14:43:23.871Z,5.55
2019-05-01T14:45:52.686Z,34.43
2019-05-01T14:48:21.520Z,7.28
2019-05-01T14:50:50.242Z,5.92
2019-05-01T14:53:18.993Z,6.53
2019-05-01T14:55:48.107Z,6.47
2019-05-01T14:58:16.920Z,6.10
2019-05-01T15:00:45.664Z,6.25
2019-05-01T15:03:14.464Z,6.17
2019-05-01T15:05:43.228Z,8.83
2019-05-01T15:08:11.944Z,6.65
2019-05-01T15:10:40.692Z,6.62
2019-05-01T15:13:27.772Z,7.15
2019-05-01T15:15:58.552Z,7.08
2019-05-01T15:18:29.896Z,6.55
2019-05-01T15:20:59.649Z,7.12
2019-05-01T15:23:29.380Z,7.47
2019-05-01T15:25:58.940Z,7.05
2019-05-01T15:28:27.727Z,6.30
2019-05-01T15:30:56.716Z,7.20
2019-05-01T15:33:25.442Z,7.55
2019-05-01T15:36:07.119Z,7.80
2019-05-01T15:38:35.800Z,5.92
2019-05-01T15:41:12.947Z,5.28
2019-05-01T15:43:43.404Z,7.80
2019-05-01T15:46:12.186Z,7.10
2019-05-01T15:48:40.918Z,6.55
2019-05-01T15:51:11.175Z,5.70
2019-05-01T15:53:40.404Z,10.25
2019-05-01T15:56:09.610Z,6.67
2019-05-01T15:58:39.329Z,6.58
2019-05-01T16:01:08.638Z,6.20
2019-05-01T16:03:37.435Z,8.85
2019-05-01T16:06:08.361Z,6.40
2019-05-01T16:08:37.015Z,6.80
2019-05-01T16:11:24.817Z,6.30
2019-05-01T16:13:54.804Z,6.35
2019-05-01T16:16:25.437Z,14.63
2019-05-01T16:18:54.305Z,10.05
2019-05-01T16:21:23.012Z,9.23
2019-05-01T16:23:51.759Z,8.53
2019-05-01T16:26:20.567Z,7.95
2019-05-01T16:28:49.363Z,5.95
2019-05-01T16:31:18.160Z,7.28
2019-05-01T16:33:46.960Z,6.33
2019-05-01T16:36:16.962Z,5.97
2019-05-01T16:38:50.363Z,6.87
2019-05-01T16:41:19.197Z,6.72
2019-05-01T16:43:47.930Z,9.40
2019-05-01T16:46:16.653Z,5.87
2019-05-01T16:48:45.416Z,7.67
2019-05-01T16:51:14.307Z,8.05
2019-05-01T16:53:43.834Z,7.08
2019-05-01T16:56:12.623Z,5.85
2019-05-01T16:58:41.367Z,8.90
2019-05-01T17:01:11.887Z,9.88
2019-05-01T17:03:45.824Z,7.58
2019-05-01T17:06:32.887Z,9.70
2019-05-01T17:09:04.218Z,12.88
2019-05-01T17:11:34.643Z,12.30
2019-05-01T17:14:04.214Z,10.03
2019-05-01T17:16:33.437Z,11.10
2019-05-01T17:19:03.314Z,8.48
2019-05-01T17:21:32.998Z,7.35
2019-05-01T17:24:01.708Z,9.35
2019-05-01T17:26:31.630Z,18.52
2019-05-01T17:29:00.424Z,6.90
2019-05-01T17:31:29.903Z,11.10
2019-05-01T17:33:58.873Z,10.82
2019-05-01T17:36:27.623Z,19.23
2019-05-01T17:38:56.341Z,15.13
2019-05-01T17:41:27.122Z,10.68
2019-05-01T17:43:56.835Z,7.55
2019-05-01T17:46:25.683Z,6.22
2019-05-01T17:48:54.410Z,6.37
2019-05-01T17:51:23.219Z,9.93
2019-05-01T17:53:51.951Z,5.67
2019-05-01T17:56:27.626Z,7.33
2019-05-01T17:58:51.242Z,10.48
2019-05-01T18:01:27.772Z,12.13
2019-05-01T18:04:01.764Z,7.78
2019-05-01T18:06:32.143Z,6.58
2019-05-01T18:09:03.296Z,7.53
2019-05-01T18:11:31.259Z,11.33
2019-05-01T18:14:00.030Z,9.20
2019-05-01T18:16:28.831Z,19.40
2019-05-01T18:18:59.188Z,7.67
2019-05-01T18:21:30.701Z,9.18
2019-05-01T18:24:04.601Z,20.35
2019-05-01T18:26:42.929Z,14.15
2019-05-01T18:29:14.383Z,9.45
2019-05-01T18:31:43.801Z,9.45
2019-05-01T18:34:14.337Z,9.65
2019-05-01T18:36:55.006Z,11.35
2019-05-01T18:39:33.696Z,9.53
2019-05-01T18:42:04.244Z,9.20
2019-05-01T18:44:33.471Z,8.75
2019-05-01T18:47:03.613Z,16.10
2019-05-01T18:49:35.338Z,10.65
2019-05-01T18:52:05.734Z,11.08
2019-05-01T18:54:36.325Z,23.42
2019-05-01T18:57:06.772Z,24.75
2019-05-01T18:59:36.911Z,32.60
2019-05-01T19:02:05.706Z,25.77
2019-05-01T19:04:35.410Z,27.35
2019-05-01T19:07:05.560Z,40.20
2019-05-01T19:09:40.948Z,37.13
2019-05-01T19:12:13.588Z,31.37
2019-05-01T19:14:44.096Z,18.05
2019-05-01T19:17:12.993Z,22.45
2019-05-01T19:20:04.135Z,19.80
2019-05-01T19:22:32.962Z,21.23
2019-05-01T19:25:01.720Z,30.92
2019-05-01T19:27:30.423Z,18.25
2019-05-01T19:29:59.233Z,18.35
2019-05-01T19:32:29.019Z,16.42
2019-05-01T19:34:57.772Z,15.68
2019-05-01T19:37:30.579Z,20.15
2019-05-01T19:39:56.941Z,16.20
2019-05-01T19:42:25.861Z,16.70
2019-05-01T19:44:56.243Z,10.45
2019-05-01T19:47:25.037Z,9.10
2019-05-01T19:49:54.652Z,8.75
2019-05-01T19:52:23.611Z,8.25
2019-05-01T19:54:52.573Z,8.40
2019-05-01T19:57:21.313Z,8.38
2019-05-01T19:59:50.036Z,7.70
2019-05-01T20:02:22.283Z,7.03
2019-05-01T20:04:50.450Z,6.25
2019-05-01T20:07:21.518Z,6.85
2019-05-01T20:09:56.765Z,5.40
2019-05-01T20:12:20.435Z,6.60
2019-05-01T20:14:49.219Z,7.28
2019-05-01T20:17:18.007Z,7.40
2019-05-01T20:19:46.812Z,6.08
2019-05-01T20:22:15.560Z,6.70
2019-05-01T20:24:45.751Z,5.83
2019-05-01T20:27:14.812Z,7.35
2019-05-01T20:29:43.576Z,6.65
2019-05-01T20:32:12.447Z,7.40
2019-05-01T20:34:41.243Z,7.20
2019-05-01T20:37:10.042Z,7.03
2019-05-01T20:39:38.776Z,7.10
2019-05-01T20:42:07.587Z,8.20
2019-05-01T20:44:36.348Z,6.85
2019-05-01T20:47:05.136Z,6.90
2019-05-01T20:49:36.372Z,7.53
2019-05-01T20:52:04.233Z,6.50
2019-05-01T20:54:33.018Z,5.95
2019-05-01T20:57:03.420Z,5.22
2019-05-01T20:59:35.310Z,6.83
2019-05-01T21:02:07.629Z,5.20
2019-05-01T21:04:40.723Z,5.37
2019-05-01T21:07:15.507Z,5.08
2019-05-01T21:09:47.893Z,5.65
2019-05-01T21:12:13.850Z,5.90
2019-05-01T21:14:45.245Z,5.22
2019-05-01T21:17:13.758Z,4.75
2019-05-01T21:19:44.041Z,5.42
2019-05-01T21:22:14.219Z,5.97
2019-05-01T21:24:44.361Z,5.47
2019-05-01T21:27:13.361Z,5.28
2019-05-01T21:29:44.338Z,4.95
2019-05-01T21:32:13.581Z,4.80
2019-05-01T21:34:43.539Z,4.65
2019-05-01T21:37:12.464Z,6.20
2019-05-01T21:39:41.276Z,5.00
2019-05-01T21:42:11.745Z,4.47
2019-05-01T21:44:40.388Z,4.78
2019-05-01T21:47:09.106Z,4.37
2019-05-01T21:49:37.860Z,4.47
2019-05-01T21:52:07.390Z,5.25
2019-05-01T21:54:36.315Z,4.70
2019-05-01T21:57:05.044Z,4.58
2019-05-01T21:59:35.313Z,4.75
2019-05-01T22:02:05.524Z,4.53
2019-05-01T22:04:54.143Z,5.17
2019-05-01T22:07:23.867Z,5.35
2019-05-01T22:09:53.347Z,5.50
2019-05-01T22:12:22.110Z,6.20
2019-05-01T22:14:52.475Z,5.85
2019-05-01T22:17:34.916Z,4.92
2019-05-01T22:20:05.115Z,4.85
2019-05-01T22:22:38.789Z,4.55
2019-05-01T22:25:09.032Z,4.67
2019-05-01T22:27:39.386Z,4.28
2019-05-01T22:30:28.399Z,3.85
2019-05-01T22:32:58.692Z,3.92
2019-05-01T22:35:29.143Z,4.33
2019-05-01T22:37:57.868Z,3.85
2019-05-01T22:43:20.684Z,5.00
2019-05-01T22:45:49.499Z,3.92
2019-05-01T22:48:18.228Z,3.75
2019-05-01T22:50:48.110Z,3.92
2019-05-01T22:53:16.843Z,3.72
2019-05-01T22:55:45.647Z,4.33
2019-05-01T22:58:14.458Z,3.80
2019-05-01T23:00:44.844Z,3.60
2019-05-01T23:03:15.303Z,3.50
2019-05-01T23:05:44.024Z,3.42
2019-05-01T23:08:12.755Z,3.75
2019-05-01T23:10:41.998Z,3.40
2019-05-01T23:13:11.850Z,3.10
2019-05-01T23:15:40.734Z,3.02
2019-05-01T23:18:10.563Z,3.50
2019-05-01T23:20:40.570Z,2.98
2019-05-01T23:23:09.376Z,4.17
2019-05-01T23:25:41.250Z,3.83
2019-05-01T23:28:08.531Z,3.40
2019-05-01T23:30:37.250Z,3.30
2019-05-01T23:33:06.000Z,3.65
2019-05-01T23:35:34.723Z,3.60
2019-05-01T23:38:03.442Z,3.58
2019-05-01T23:40:32.171Z,4.10
2019-05-01T23:43:00.951Z,3.87
2019-05-01T23:45:29.729Z,3.72
2019-05-01T23:47:58.434Z,4.00
2019-05-01T23:50:27.158Z,4.10
2019-05-01T23:52:55.875Z,4.50
2019-05-01T23:55:24.591Z,4.42
2019-05-01T23:57:53.319Z,4.78
